sensor_id;sensor_type;location;lat;lon;timestamp;P1;durP1;ratioP1;P2;durP2;ratioP2
33190;SDS011;19554;42.652;23.364;2022-09-16T00:00:15;11.55;;;3.22;;
33190;SDS011;19554;42.652;23.364;2022-09-16T00:02:41;12.40;;;3.38;;
33190;SDS011;19554;42.652;23.364;2022-09-16T00:05:06;10.32;;;3.03;;
33190;SDS011;19554;42.652;23.364;2022-09-16T00:07:33;15.55;;;3.67;;
33190;SDS011;19554;42.652;23.364;2022-09-16T00:09:58;11.82;;;3.83;;
33190;SDS011;19554;42.652;23.364;2022-09-16T00:12:24;8.27;;;2.72;;
33190;SDS011;19554;42.652;23.364;2022-09-16T00:14:51;11.18;;;3.38;;
33190;SDS011;19554;42.652;23.364;2022-09-16T00:17:17;14.13;;;2.90;;
33190;SDS011;19554;42.652;23.364;2022-09-16T00:19:43;10.77;;;2.78;;
33190;SDS011;19554;42.652;23.364;2022-09-16T00:22:08;12.25;;;3.08;;
33190;SDS011;19554;42.652;23.364;2022-09-16T00:24:34;14.00;;;3.08;;
33190;SDS011;19554;42.652;23.364;2022-09-16T00:26:59;7.13;;;2.83;;
33190;SDS011;19554;42.652;23.364;2022-09-16T00:29:24;6.28;;;2.90;;
33190;SDS011;19554;42.652;23.364;2022-09-16T00:31:50;8.32;;;3.20;;
33190;SDS011;19554;42.652;23.364;2022-09-16T00:34:15;8.48;;;2.40;;
33190;SDS011;19554;42.652;23.364;2022-09-16T00:36:41;14.73;;;3.17;;
33190;SDS011;19554;42.652;23.364;2022-09-16T00:39:06;6.90;;;3.17;;
33190;SDS011;19554;42.652;23.364;2022-09-16T00:41:31;12.23;;;3.22;;
33190;SDS011;19554;42.652;23.364;2022-09-16T00:44:01;9.27;;;2.88;;
33190;SDS011;19554;42.652;23.364;2022-09-16T00:49:02;9.68;;;3.20;;
33190;SDS011;19554;42.652;23.364;2022-09-16T00:51:33;13.38;;;3.70;;
33190;SDS011;19554;42.652;23.364;2022-09-16T00:53:59;8.32;;;2.83;;
33190;SDS011;19554;42.652;23.364;2022-09-16T00:56:28;6.65;;;2.42;;
33190;SDS011;19554;42.652;23.364;2022-09-16T01:01:26;14.05;;;3.33;;
33190;SDS011;19554;42.652;23.364;2022-09-16T01:03:53;14.73;;;3.75;;
33190;SDS011;19554;42.652;23.364;2022-09-16T01:06:23;7.50;;;2.80;;
33190;SDS011;19554;42.652;23.364;2022-09-16T01:08:50;11.43;;;2.60;;
33190;SDS011;19554;42.652;23.364;2022-09-16T01:11:15;8.27;;;2.97;;
33190;SDS011;19554;42.652;23.364;2022-09-16T01:13:41;20.08;;;3.28;;
33190;SDS011;19554;42.652;23.364;2022-09-16T01:19:04;11.43;;;2.50;;
33190;SDS011;19554;42.652;23.364;2022-09-16T01:22:02;7.72;;;3.25;;
33190;SDS011;19554;42.652;23.364;2022-09-16T01:24:53;5.93;;;2.83;;
33190;SDS011;19554;42.652;23.364;2022-09-16T01:27:51;10.45;;;2.70;;
33190;SDS011;19554;42.652;23.364;2022-09-16T01:30:36;14.25;;;3.13;;
33190;SDS011;19554;42.652;23.364;2022-09-16T01:36:02;8.90;;;2.42;;
33190;SDS011;19554;42.652;23.364;2022-09-16T01:46:57;15.00;;;3.47;;
33190;SDS011;19554;42.652;23.364;2022-09-16T01:55:26;6.22;;;2.42;;
33190;SDS011;19554;42.652;23.364;2022-09-16T01:58:19;7.65;;;2.85;;
33190;SDS011;19554;42.652;23.364;2022-09-16T02:00:52;6.10;;;1.95;;
33190;SDS011;19554;42.652;23.364;2022-09-16T02:03:23;8.73;;;2.58;;
33190;SDS011;19554;42.652;23.364;2022-09-16T02:05:54;12.20;;;2.65;;
33190;SDS011;19554;42.652;23.364;2022-09-16T02:13:33;12.50;;;2.92;;
33190;SDS011;19554;42.652;23.364;2022-09-16T02:16:03;12.52;;;2.90;;
33190;SDS011;19554;42.652;23.364;2022-09-16T02:18:33;13.40;;;3.10;;
33190;SDS011;19554;42.652;23.364;2022-09-16T02:21:03;10.65;;;2.83;;
33190;SDS011;19554;42.652;23.364;2022-09-16T02:23:33;5.40;;;2.90;;
33190;SDS011;19554;42.652;23.364;2022-09-16T02:26:04;9.52;;;2.95;;
33190;SDS011;19554;42.652;23.364;2022-09-16T02:28:33;10.27;;;3.20;;
33190;SDS011;19554;42.652;23.364;2022-09-16T02:31:04;6.35;;;2.20;;
33190;SDS011;19554;42.652;23.364;2022-09-16T02:33:32;6.30;;;2.70;;
33190;SDS011;19554;42.652;23.364;2022-09-16T02:36:04;9.88;;;3.42;;
33190;SDS011;19554;42.652;23.364;2022-09-16T02:38:34;9.93;;;3.10;;
33190;SDS011;19554;42.652;23.364;2022-09-16T02:41:05;9.02;;;3.05;;
33190;SDS011;19554;42.652;23.364;2022-09-16T02:43:33;10.02;;;2.80;;
33190;SDS011;19554;42.652;23.364;2022-09-16T02:48:35;11.57;;;3.03;;
33190;SDS011;19554;42.652;23.364;2022-09-16T02:51:22;11.07;;;3.50;;
33190;SDS011;19554;42.652;23.364;2022-09-16T02:56:34;10.10;;;2.90;;
33190;SDS011;19554;42.652;23.364;2022-09-16T02:59:02;14.23;;;3.83;;
33190;SDS011;19554;42.652;23.364;2022-09-16T03:01:30;17.85;;;2.90;;
33190;SDS011;19554;42.652;23.364;2022-09-16T03:03:59;7.97;;;3.13;;
33190;SDS011;19554;42.652;23.364;2022-09-16T03:06:25;6.35;;;2.67;;
33190;SDS011;19554;42.652;23.364;2022-09-16T03:08:53;12.65;;;3.00;;
33190;SDS011;19554;42.652;23.364;2022-09-16T03:19:43;12.02;;;3.17;;
33190;SDS011;19554;42.652;23.364;2022-09-16T03:27:47;12.20;;;3.28;;
33190;SDS011;19554;42.652;23.364;2022-09-16T03:30:18;22.08;;;3.83;;
33190;SDS011;19554;42.652;23.364;2022-09-16T03:32:56;9.80;;;2.97;;
33190;SDS011;19554;42.652;23.364;2022-09-16T03:37:58;18.13;;;3.53;;
33190;SDS011;19554;42.652;23.364;2022-09-16T03:40:26;10.25;;;2.97;;
33190;SDS011;19554;42.652;23.364;2022-09-16T03:42:53;9.35;;;3.00;;
33190;SDS011;19554;42.652;23.364;2022-09-16T03:45:21;13.00;;;3.35;;
33190;SDS011;19554;42.652;23.364;2022-09-16T03:47:48;15.00;;;3.40;;
33190;SDS011;19554;42.652;23.364;2022-09-16T03:50:15;10.43;;;3.35;;
33190;SDS011;19554;42.652;23.364;2022-09-16T03:52:41;11.82;;;2.88;;
33190;SDS011;19554;42.652;23.364;2022-09-16T03:55:07;13.48;;;3.60;;
33190;SDS011;19554;42.652;23.364;2022-09-16T03:57:34;10.18;;;3.13;;
33190;SDS011;19554;42.652;23.364;2022-09-16T04:00:00;13.50;;;3.35;;
33190;SDS011;19554;42.652;23.364;2022-09-16T04:02:25;13.82;;;3.20;;
33190;SDS011;19554;42.652;23.364;2022-09-16T04:04:51;8.98;;;3.50;;
33190;SDS011;19554;42.652;23.364;2022-09-16T04:07:17;12.15;;;3.60;;
33190;SDS011;19554;42.652;23.364;2022-09-16T04:09:42;9.43;;;3.58;;
33190;SDS011;19554;42.652;23.364;2022-09-16T04:12:08;11.82;;;3.67;;
33190;SDS011;19554;42.652;23.364;2022-09-16T04:14:34;11.88;;;4.30;;
33190;SDS011;19554;42.652;23.364;2022-09-16T04:16:59;12.43;;;3.92;;
33190;SDS011;19554;42.652;23.364;2022-09-16T04:19:25;12.27;;;3.53;;
33190;SDS011;19554;42.652;23.364;2022-09-16T04:21:50;12.07;;;3.95;;
33190;SDS011;19554;42.652;23.364;2022-09-16T04:24:16;13.20;;;3.75;;
33190;SDS011;19554;42.652;23.364;2022-09-16T04:26:41;18.65;;;3.80;;
33190;SDS011;19554;42.652;23.364;2022-09-16T04:29:07;20.48;;;5.00;;
33190;SDS011;19554;42.652;23.364;2022-09-16T04:31:33;19.35;;;4.47;;
33190;SDS011;19554;42.652;23.364;2022-09-16T04:34:02;38.40;;;5.85;;
33190;SDS011;19554;42.652;23.364;2022-09-16T04:36:28;22.08;;;4.50;;
33190;SDS011;19554;42.652;23.364;2022-09-16T04:38:54;14.55;;;3.58;;
33190;SDS011;19554;42.652;23.364;2022-09-16T04:41:21;14.35;;;4.15;;
33190;SDS011;19554;42.652;23.364;2022-09-16T04:43:54;16.13;;;3.67;;
33190;SDS011;19554;42.652;23.364;2022-09-16T04:46:21;17.90;;;4.50;;
33190;SDS011;19554;42.652;23.364;2022-09-16T04:48:48;25.67;;;5.03;;
33190;SDS011;19554;42.652;23.364;2022-09-16T04:51:15;25.98;;;5.53;;
33190;SDS011;19554;42.652;23.364;2022-09-16T04:53:41;43.05;;;6.63;;
33190;SDS011;19554;42.652;23.364;2022-09-16T04:56:11;38.33;;;6.82;;
33190;SDS011;19554;42.652;23.364;2022-09-16T04:58:40;22.45;;;5.57;;
33190;SDS011;19554;42.652;23.364;2022-09-16T05:01:07;24.65;;;4.88;;
33190;SDS011;19554;42.652;23.364;2022-09-16T05:03:38;19.48;;;4.93;;
33190;SDS011;19554;42.652;23.364;2022-09-16T05:06:08;22.48;;;5.25;;
33190;SDS011;19554;42.652;23.364;2022-09-16T05:08:38;16.77;;;4.80;;
33190;SDS011;19554;42.652;23.364;2022-09-16T05:11:14;24.85;;;4.22;;
33190;SDS011;19554;42.652;23.364;2022-09-16T05:13:42;32.92;;;5.85;;
33190;SDS011;19554;42.652;23.364;2022-09-16T05:16:08;38.80;;;7.03;;
33190;SDS011;19554;42.652;23.364;2022-09-16T05:18:36;31.55;;;6.03;;
33190;SDS011;19554;42.652;23.364;2022-09-16T05:21:04;29.80;;;5.43;;
33190;SDS011;19554;42.652;23.364;2022-09-16T05:23:32;41.78;;;6.80;;
33190;SDS011;19554;42.652;23.364;2022-09-16T05:26:01;37.75;;;4.80;;
33190;SDS011;19554;42.652;23.364;2022-09-16T05:28:28;27.33;;;4.43;;
33190;SDS011;19554;42.652;23.364;2022-09-16T05:30:53;33.78;;;5.75;;
33190;SDS011;19554;42.652;23.364;2022-09-16T05:33:19;26.38;;;6.00;;
33190;SDS011;19554;42.652;23.364;2022-09-16T05:35:44;41.50;;;6.03;;
33190;SDS011;19554;42.652;23.364;2022-09-16T05:38:10;22.90;;;4.68;;
33190;SDS011;19554;42.652;23.364;2022-09-16T05:40:36;37.63;;;4.90;;
33190;SDS011;19554;42.652;23.364;2022-09-16T05:43:02;45.28;;;7.43;;
33190;SDS011;19554;42.652;23.364;2022-09-16T05:45:27;26.95;;;5.60;;
33190;SDS011;19554;42.652;23.364;2022-09-16T05:47:53;31.55;;;5.85;;
33190;SDS011;19554;42.652;23.364;2022-09-16T05:50:18;25.65;;;4.82;;
33190;SDS011;19554;42.652;23.364;2022-09-16T05:52:44;33.97;;;5.68;;
33190;SDS011;19554;42.652;23.364;2022-09-16T05:55:09;31.92;;;5.80;;
33190;SDS011;19554;42.652;23.364;2022-09-16T05:57:35;28.65;;;4.45;;
33190;SDS011;19554;42.652;23.364;2022-09-16T06:00:01;25.40;;;4.85;;
33190;SDS011;19554;42.652;23.364;2022-09-16T06:02:28;18.13;;;4.35;;
33190;SDS011;19554;42.652;23.364;2022-09-16T06:04:53;21.40;;;4.60;;
33190;SDS011;19554;42.652;23.364;2022-09-16T06:07:18;16.00;;;3.65;;
33190;SDS011;19554;42.652;23.364;2022-09-16T06:09:44;15.55;;;3.85;;
33190;SDS011;19554;42.652;23.364;2022-09-16T06:12:09;15.70;;;3.92;;
33190;SDS011;19554;42.652;23.364;2022-09-16T06:14:35;9.88;;;2.42;;
33190;SDS011;19554;42.652;23.364;2022-09-16T06:17:00;18.10;;;3.72;;
33190;SDS011;19554;42.652;23.364;2022-09-16T06:19:26;9.70;;;3.08;;
33190;SDS011;19554;42.652;23.364;2022-09-16T06:21:52;14.75;;;3.05;;
33190;SDS011;19554;42.652;23.364;2022-09-16T06:24:18;12.23;;;3.63;;
33190;SDS011;19554;42.652;23.364;2022-09-16T06:26:45;9.60;;;3.00;;
33190;SDS011;19554;42.652;23.364;2022-09-16T06:29:12;11.15;;;2.63;;
33190;SDS011;19554;42.652;23.364;2022-09-16T06:31:39;14.43;;;2.88;;
33190;SDS011;19554;42.652;23.364;2022-09-16T06:34:05;11.25;;;3.08;;
33190;SDS011;19554;42.652;23.364;2022-09-16T06:36:32;15.10;;;3.25;;
33190;SDS011;19554;42.652;23.364;2022-09-16T06:39:00;13.48;;;3.30;;
33190;SDS011;19554;42.652;23.364;2022-09-16T06:41:26;12.30;;;4.07;;
33190;SDS011;19554;42.652;23.364;2022-09-16T06:43:51;14.40;;;3.30;;
33190;SDS011;19554;42.652;23.364;2022-09-16T06:46:18;21.63;;;3.17;;
33190;SDS011;19554;42.652;23.364;2022-09-16T06:48:47;12.90;;;2.95;;
33190;SDS011;19554;42.652;23.364;2022-09-16T06:51:26;17.25;;;2.85;;
33190;SDS011;19554;42.652;23.364;2022-09-16T06:53:53;14.93;;;3.08;;
33190;SDS011;19554;42.652;23.364;2022-09-16T06:56:23;9.93;;;3.08;;
33190;SDS011;19554;42.652;23.364;2022-09-16T06:58:49;18.52;;;3.83;;
33190;SDS011;19554;42.652;23.364;2022-09-16T07:01:20;22.98;;;11.13;;
33190;SDS011;19554;42.652;23.364;2022-09-16T07:03:48;21.17;;;8.65;;
33190;SDS011;19554;42.652;23.364;2022-09-16T07:06:16;25.63;;;5.38;;
33190;SDS011;19554;42.652;23.364;2022-09-16T07:08:42;11.30;;;4.53;;
33190;SDS011;19554;42.652;23.364;2022-09-16T07:11:10;15.57;;;5.57;;
33190;SDS011;19554;42.652;23.364;2022-09-16T07:13:41;13.90;;;2.92;;
33190;SDS011;19554;42.652;23.364;2022-09-16T07:16:08;16.65;;;6.47;;
33190;SDS011;19554;42.652;23.364;2022-09-16T07:18:36;9.70;;;2.80;;
33190;SDS011;19554;42.652;23.364;2022-09-16T07:21:03;11.57;;;2.60;;
33190;SDS011;19554;42.652;23.364;2022-09-16T07:23:31;16.33;;;3.15;;
33190;SDS011;19554;42.652;23.364;2022-09-16T07:25:59;11.05;;;2.75;;
33190;SDS011;19554;42.652;23.364;2022-09-16T07:28:29;10.07;;;2.67;;
33190;SDS011;19554;42.652;23.364;2022-09-16T07:30:55;16.15;;;3.53;;
33190;SDS011;19554;42.652;23.364;2022-09-16T07:33:24;15.15;;;3.83;;
33190;SDS011;19554;42.652;23.364;2022-09-16T07:35:49;11.20;;;3.30;;
33190;SDS011;19554;42.652;23.364;2022-09-16T07:38:14;10.00;;;3.17;;
33190;SDS011;19554;42.652;23.364;2022-09-16T07:40:40;15.07;;;3.03;;
33190;SDS011;19554;42.652;23.364;2022-09-16T07:43:05;13.95;;;3.42;;
33190;SDS011;19554;42.652;23.364;2022-09-16T07:45:31;10.18;;;2.50;;
33190;SDS011;19554;42.652;23.364;2022-09-16T07:47:56;10.98;;;3.28;;
33190;SDS011;19554;42.652;23.364;2022-09-16T07:50:22;10.95;;;3.30;;
33190;SDS011;19554;42.652;23.364;2022-09-16T07:52:47;13.68;;;2.85;;
33190;SDS011;19554;42.652;23.364;2022-09-16T07:55:13;10.75;;;2.80;;
33190;SDS011;19554;42.652;23.364;2022-09-16T07:57:41;12.85;;;3.13;;
33190;SDS011;19554;42.652;23.364;2022-09-16T08:00:06;19.17;;;4.00;;
33190;SDS011;19554;42.652;23.364;2022-09-16T08:02:32;12.25;;;3.88;;
33190;SDS011;19554;42.652;23.364;2022-09-16T08:04:58;11.80;;;3.80;;
33190;SDS011;19554;42.652;23.364;2022-09-16T08:07:23;9.55;;;3.42;;
33190;SDS011;19554;42.652;23.364;2022-09-16T08:09:49;14.25;;;4.07;;
33190;SDS011;19554;42.652;23.364;2022-09-16T08:12:14;11.50;;;3.47;;
33190;SDS011;19554;42.652;23.364;2022-09-16T08:14:39;20.65;;;3.65;;
33190;SDS011;19554;42.652;23.364;2022-09-16T08:17:05;13.65;;;3.95;;
33190;SDS011;19554;42.652;23.364;2022-09-16T08:19:31;12.00;;;3.15;;
33190;SDS011;19554;42.652;23.364;2022-09-16T08:21:56;13.43;;;3.15;;
33190;SDS011;19554;42.652;23.364;2022-09-16T08:24:22;10.05;;;3.13;;
33190;SDS011;19554;42.652;23.364;2022-09-16T08:26:47;14.50;;;3.92;;
33190;SDS011;19554;42.652;23.364;2022-09-16T08:29:13;14.77;;;4.38;;
33190;SDS011;19554;42.652;23.364;2022-09-16T08:31:38;12.38;;;4.20;;
33190;SDS011;19554;42.652;23.364;2022-09-16T08:34:04;11.57;;;3.40;;
33190;SDS011;19554;42.652;23.364;2022-09-16T08:36:29;19.88;;;6.38;;
33190;SDS011;19554;42.652;23.364;2022-09-16T08:38:57;9.40;;;4.00;;
33190;SDS011;19554;42.652;23.364;2022-09-16T08:41:38;11.80;;;3.47;;
33190;SDS011;19554;42.652;23.364;2022-09-16T08:46:57;17.58;;;3.90;;
33190;SDS011;19554;42.652;23.364;2022-09-16T08:49:31;15.75;;;4.10;;
33190;SDS011;19554;42.652;23.364;2022-09-16T08:52:00;13.60;;;3.55;;
33190;SDS011;19554;42.652;23.364;2022-09-16T08:54:40;15.05;;;4.50;;
33190;SDS011;19554;42.652;23.364;2022-09-16T08:57:16;14.60;;;4.03;;
33190;SDS011;19554;42.652;23.364;2022-09-16T08:59:48;23.05;;;4.70;;
33190;SDS011;19554;42.652;23.364;2022-09-16T09:02:20;15.02;;;5.90;;
33190;SDS011;19554;42.652;23.364;2022-09-16T09:04:47;10.20;;;3.63;;
33190;SDS011;19554;42.652;23.364;2022-09-16T09:07:21;22.63;;;4.82;;
33190;SDS011;19554;42.652;23.364;2022-09-16T09:12:50;14.98;;;4.30;;
33190;SDS011;19554;42.652;23.364;2022-09-16T09:32:15;20.42;;;4.30;;
33190;SDS011;19554;42.652;23.364;2022-09-16T09:40:12;21.58;;;3.75;;
33190;SDS011;19554;42.652;23.364;2022-09-16T09:45:55;23.17;;;5.63;;
33190;SDS011;19554;42.652;23.364;2022-09-16T09:48:29;18.77;;;4.45;;
33190;SDS011;19554;42.652;23.364;2022-09-16T09:50:57;19.60;;;3.88;;
33190;SDS011;19554;42.652;23.364;2022-09-16T09:53:34;18.45;;;4.63;;
33190;SDS011;19554;42.652;23.364;2022-09-16T09:56:23;14.38;;;4.70;;
33190;SDS011;19554;42.652;23.364;2022-09-16T10:01:18;19.38;;;5.80;;
33190;SDS011;19554;42.652;23.364;2022-09-16T10:03:44;21.75;;;6.43;;
33190;SDS011;19554;42.652;23.364;2022-09-16T10:06:11;19.90;;;5.75;;
33190;SDS011;19554;42.652;23.364;2022-09-16T10:08:49;17.67;;;5.70;;
33190;SDS011;19554;42.652;23.364;2022-09-16T10:11:17;26.13;;;5.93;;
33190;SDS011;19554;42.652;23.364;2022-09-16T10:13:47;21.42;;;4.82;;
33190;SDS011;19554;42.652;23.364;2022-09-16T10:16:19;20.02;;;4.53;;
33190;SDS011;19554;42.652;23.364;2022-09-16T10:21:39;14.23;;;3.90;;
33190;SDS011;19554;42.652;23.364;2022-09-16T10:26:55;14.73;;;4.18;;
33190;SDS011;19554;42.652;23.364;2022-09-16T10:29:22;20.13;;;3.97;;
33190;SDS011;19554;42.652;23.364;2022-09-16T10:31:47;24.23;;;4.78;;
33190;SDS011;19554;42.652;23.364;2022-09-16T10:36:45;11.10;;;3.90;;
33190;SDS011;19554;42.652;23.364;2022-09-16T10:39:23;12.90;;;3.70;;
33190;SDS011;19554;42.652;23.364;2022-09-16T10:41:50;15.85;;;4.10;;
33190;SDS011;19554;42.652;23.364;2022-09-16T10:44:16;16.75;;;3.67;;
33190;SDS011;19554;42.652;23.364;2022-09-16T10:46:59;11.05;;;4.10;;
33190;SDS011;19554;42.652;23.364;2022-09-16T10:49:33;13.57;;;3.30;;
33190;SDS011;19554;42.652;23.364;2022-09-16T10:52:06;16.13;;;3.65;;
33190;SDS011;19554;42.652;23.364;2022-09-16T10:54:42;9.93;;;2.40;;
33190;SDS011;19554;42.652;23.364;2022-09-16T10:57:21;8.70;;;3.30;;
33190;SDS011;19554;42.652;23.364;2022-09-16T11:08:01;6.40;;;1.75;;
33190;SDS011;19554;42.652;23.364;2022-09-16T11:10:47;4.63;;;1.90;;
33190;SDS011;19554;42.652;23.364;2022-09-16T11:16:12;6.28;;;2.20;;
33190;SDS011;19554;42.652;23.364;2022-09-16T11:32:46;2.88;;;1.33;;
33190;SDS011;19554;42.652;23.364;2022-09-16T11:45:54;5.63;;;1.90;;
33190;SDS011;19554;42.652;23.364;2022-09-16T11:57:15;1.80;;;0.80;;
33190;SDS011;19554;42.652;23.364;2022-09-16T11:59:48;2.40;;;1.35;;
33190;SDS011;19554;42.652;23.364;2022-09-16T12:02:30;4.75;;;2.47;;
33190;SDS011;19554;42.652;23.364;2022-09-16T12:05:15;5.05;;;2.10;;
33190;SDS011;19554;42.652;23.364;2022-09-16T12:07:43;5.15;;;2.38;;
33190;SDS011;19554;42.652;23.364;2022-09-16T12:10:39;7.80;;;2.00;;
33190;SDS011;19554;42.652;23.364;2022-09-16T12:13:13;4.47;;;1.57;;
33190;SDS011;19554;42.652;23.364;2022-09-16T12:16:04;3.97;;;1.63;;
33190;SDS011;19554;42.652;23.364;2022-09-16T12:18:38;6.35;;;1.83;;
33190;SDS011;19554;42.652;23.364;2022-09-16T12:21:12;6.72;;;2.13;;
33190;SDS011;19554;42.652;23.364;2022-09-16T12:23:50;7.22;;;1.73;;
33190;SDS011;19554;42.652;23.364;2022-09-16T12:26:26;4.28;;;1.70;;
33190;SDS011;19554;42.652;23.364;2022-09-16T12:31:28;5.07;;;2.00;;
33190;SDS011;19554;42.652;23.364;2022-09-16T12:34:00;11.88;;;2.58;;
33190;SDS011;19554;42.652;23.364;2022-09-16T12:36:29;4.40;;;2.08;;
33190;SDS011;19554;42.652;23.364;2022-09-16T12:38:58;6.18;;;2.28;;
33190;SDS011;19554;42.652;23.364;2022-09-16T13:03:07;7.03;;;2.45;;
33190;SDS011;19554;42.652;23.364;2022-09-16T13:05:39;12.57;;;2.90;;
33190;SDS011;19554;42.652;23.364;2022-09-16T13:10:55;7.50;;;3.13;;
33190;SDS011;19554;42.652;23.364;2022-09-16T13:13:28;8.13;;;2.38;;
33190;SDS011;19554;42.652;23.364;2022-09-16T13:15:56;7.47;;;2.65;;
33190;SDS011;19554;42.652;23.364;2022-09-16T13:18:36;10.60;;;2.95;;
33190;SDS011;19554;42.652;23.364;2022-09-16T13:21:06;9.95;;;3.47;;
33190;SDS011;19554;42.652;23.364;2022-09-16T13:23:39;11.93;;;3.25;;
33190;SDS011;19554;42.652;23.364;2022-09-16T13:26:09;8.35;;;3.42;;
33190;SDS011;19554;42.652;23.364;2022-09-16T13:28:36;11.45;;;4.25;;
33190;SDS011;19554;42.652;23.364;2022-09-16T13:31:13;11.43;;;3.17;;
33190;SDS011;19554;42.652;23.364;2022-09-16T13:49:33;7.47;;;2.72;;
33190;SDS011;19554;42.652;23.364;2022-09-16T13:52:08;6.82;;;2.20;;
33190;SDS011;19554;42.652;23.364;2022-09-16T13:54:40;7.13;;;2.45;;
33190;SDS011;19554;42.652;23.364;2022-09-16T13:57:29;12.00;;;2.90;;
33190;SDS011;19554;42.652;23.364;2022-09-16T14:05:56;6.45;;;2.40;;
33190;SDS011;19554;42.652;23.364;2022-09-16T14:14:13;7.82;;;2.42;;
33190;SDS011;19554;42.652;23.364;2022-09-16T14:16:43;7.85;;;2.92;;
33190;SDS011;19554;42.652;23.364;2022-09-16T14:21:36;7.57;;;2.30;;
33190;SDS011;19554;42.652;23.364;2022-09-16T14:24:06;7.10;;;2.63;;
33190;SDS011;19554;42.652;23.364;2022-09-16T14:26:48;10.90;;;2.95;;
33190;SDS011;19554;42.652;23.364;2022-09-16T14:29:15;7.82;;;2.55;;
33190;SDS011;19554;42.652;23.364;2022-09-16T14:31:40;5.72;;;2.72;;
33190;SDS011;19554;42.652;23.364;2022-09-16T14:34:10;7.75;;;2.55;;
33190;SDS011;19554;42.652;23.364;2022-09-16T14:36:40;7.72;;;3.13;;
33190;SDS011;19554;42.652;23.364;2022-09-16T14:46:55;8.70;;;2.60;;
33190;SDS011;19554;42.652;23.364;2022-09-16T14:49:31;5.18;;;3.20;;
33190;SDS011;19554;42.652;23.364;2022-09-16T14:52:01;8.17;;;3.60;;
33190;SDS011;19554;42.652;23.364;2022-09-16T14:54:28;7.50;;;3.30;;
33190;SDS011;19554;42.652;23.364;2022-09-16T14:59:20;7.15;;;3.47;;
33190;SDS011;19554;42.652;23.364;2022-09-16T15:01:49;10.52;;;4.63;;
33190;SDS011;19554;42.652;23.364;2022-09-16T15:04:17;11.07;;;4.55;;
33190;SDS011;19554;42.652;23.364;2022-09-16T15:06:53;13.27;;;3.78;;
33190;SDS011;19554;42.652;23.364;2022-09-16T15:12:03;12.88;;;4.20;;
33190;SDS011;19554;42.652;23.364;2022-09-16T15:14:30;8.48;;;3.85;;
33190;SDS011;19554;42.652;23.364;2022-09-16T15:16:57;9.65;;;4.82;;
33190;SDS011;19554;42.652;23.364;2022-09-16T15:19:36;10.10;;;4.57;;
33190;SDS011;19554;42.652;23.364;2022-09-16T15:22:05;9.68;;;4.18;;
33190;SDS011;19554;42.652;23.364;2022-09-16T15:24:35;7.00;;;2.80;;
33190;SDS011;19554;42.652;23.364;2022-09-16T15:27:05;7.93;;;3.30;;
33190;SDS011;19554;42.652;23.364;2022-09-16T15:29:31;5.53;;;3.13;;
33190;SDS011;19554;42.652;23.364;2022-09-16T15:32:05;7.88;;;2.95;;
33190;SDS011;19554;42.652;23.364;2022-09-16T15:34:40;10.25;;;4.32;;
33190;SDS011;19554;42.652;23.364;2022-09-16T15:37:26;7.60;;;2.78;;
33190;SDS011;19554;42.652;23.364;2022-09-16T15:39:54;5.20;;;2.55;;
33190;SDS011;19554;42.652;23.364;2022-09-16T15:42:19;10.13;;;2.90;;
33190;SDS011;19554;42.652;23.364;2022-09-16T15:50:06;7.10;;;3.30;;
33190;SDS011;19554;42.652;23.364;2022-09-16T15:55:36;10.68;;;2.92;;
33190;SDS011;19554;42.652;23.364;2022-09-16T15:58:12;9.23;;;3.25;;
33190;SDS011;19554;42.652;23.364;2022-09-16T16:00:53;8.23;;;3.00;;
33190;SDS011;19554;42.652;23.364;2022-09-16T16:03:23;4.43;;;2.85;;
33190;SDS011;19554;42.652;23.364;2022-09-16T16:05:52;5.72;;;2.42;;
33190;SDS011;19554;42.652;23.364;2022-09-16T16:09:03;5.90;;;2.38;;
33190;SDS011;19554;42.652;23.364;2022-09-16T16:11:07;8.25;;;2.35;;
33190;SDS011;19554;42.652;23.364;2022-09-16T16:13:38;5.75;;;3.03;;
33190;SDS011;19554;42.652;23.364;2022-09-16T16:16:04;6.72;;;2.72;;
33190;SDS011;19554;42.652;23.364;2022-09-16T16:18:32;4.90;;;3.45;;
33190;SDS011;19554;42.652;23.364;2022-09-16T16:21:03;8.00;;;3.72;;
33190;SDS011;19554;42.652;23.364;2022-09-16T16:23:29;5.78;;;3.45;;
33190;SDS011;19554;42.652;23.364;2022-09-16T16:25:55;11.52;;;3.70;;
33190;SDS011;19554;42.652;23.364;2022-09-16T16:28:20;9.25;;;3.63;;
33190;SDS011;19554;42.652;23.364;2022-09-16T16:30:46;9.18;;;3.90;;
33190;SDS011;19554;42.652;23.364;2022-09-16T16:33:11;12.55;;;3.50;;
33190;SDS011;19554;42.652;23.364;2022-09-16T16:35:36;9.93;;;4.22;;
33190;SDS011;19554;42.652;23.364;2022-09-16T16:38:02;10.55;;;3.22;;
33190;SDS011;19554;42.652;23.364;2022-09-16T16:40:27;8.95;;;3.13;;
33190;SDS011;19554;42.652;23.364;2022-09-16T16:42:52;10.63;;;3.70;;
33190;SDS011;19554;42.652;23.364;2022-09-16T16:45:18;7.38;;;2.88;;
33190;SDS011;19554;42.652;23.364;2022-09-16T16:47:45;8.95;;;3.03;;
33190;SDS011;19554;42.652;23.364;2022-09-16T16:50:10;10.57;;;3.45;;
33190;SDS011;19554;42.652;23.364;2022-09-16T16:52:36;10.23;;;4.50;;
33190;SDS011;19554;42.652;23.364;2022-09-16T16:55:01;8.77;;;3.05;;
33190;SDS011;19554;42.652;23.364;2022-09-16T16:57:27;12.55;;;3.92;;
33190;SDS011;19554;42.652;23.364;2022-09-16T16:59:52;9.95;;;4.75;;
33190;SDS011;19554;42.652;23.364;2022-09-16T17:02:18;6.65;;;4.40;;
33190;SDS011;19554;42.652;23.364;2022-09-16T17:04:43;13.52;;;6.82;;
33190;SDS011;19554;42.652;23.364;2022-09-16T17:07:08;8.32;;;5.05;;
33190;SDS011;19554;42.652;23.364;2022-09-16T17:09:34;10.82;;;4.18;;
33190;SDS011;19554;42.652;23.364;2022-09-16T17:12:00;9.30;;;4.10;;
33190;SDS011;19554;42.652;23.364;2022-09-16T17:14:28;9.93;;;3.72;;
33190;SDS011;19554;42.652;23.364;2022-09-16T17:16:55;9.60;;;3.53;;
33190;SDS011;19554;42.652;23.364;2022-09-16T17:19:21;12.90;;;5.00;;
33190;SDS011;19554;42.652;23.364;2022-09-16T17:21:48;8.85;;;3.97;;
33190;SDS011;19554;42.652;23.364;2022-09-16T17:24:14;10.27;;;3.50;;
33190;SDS011;19554;42.652;23.364;2022-09-16T17:26:40;8.27;;;2.97;;
33190;SDS011;19554;42.652;23.364;2022-09-16T17:29:06;9.57;;;3.78;;
33190;SDS011;19554;42.652;23.364;2022-09-16T17:31:32;9.27;;;3.80;;
33190;SDS011;19554;42.652;23.364;2022-09-16T17:34:00;10.13;;;3.38;;
33190;SDS011;19554;42.652;23.364;2022-09-16T17:36:29;8.98;;;2.40;;
33190;SDS011;19554;42.652;23.364;2022-09-16T17:38:57;7.22;;;4.03;;
33190;SDS011;19554;42.652;23.364;2022-09-16T17:41:27;13.88;;;3.28;;
33190;SDS011;19554;42.652;23.364;2022-09-16T17:43:57;7.53;;;3.22;;
33190;SDS011;19554;42.652;23.364;2022-09-16T17:46:24;15.73;;;3.05;;
33190;SDS011;19554;42.652;23.364;2022-09-16T17:48:51;11.85;;;3.03;;
33190;SDS011;19554;42.652;23.364;2022-09-16T17:51:18;7.30;;;2.88;;
33190;SDS011;19554;42.652;23.364;2022-09-16T17:53:44;5.47;;;3.03;;
33190;SDS011;19554;42.652;23.364;2022-09-16T17:56:12;9.95;;;2.65;;
33190;SDS011;19554;42.652;23.364;2022-09-16T17:58:40;8.77;;;3.20;;
33190;SDS011;19554;42.652;23.364;2022-09-16T18:01:42;9.73;;;4.40;;
33190;SDS011;19554;42.652;23.364;2022-09-16T18:04:01;8.95;;;2.63;;
33190;SDS011;19554;42.652;23.364;2022-09-16T18:06:28;10.27;;;4.35;;
33190;SDS011;19554;42.652;23.364;2022-09-16T18:08:57;14.40;;;5.13;;
33190;SDS011;19554;42.652;23.364;2022-09-16T18:11:23;8.68;;;4.38;;
33190;SDS011;19554;42.652;23.364;2022-09-16T18:13:53;13.48;;;4.25;;